sensor_id;sensor_type;location;lat;lon;timestamp;temperature;humidity
27314;DHT22;14800;48.174;9.798;2023-07-30T00:01:19;20.70;82.80
27314;DHT22;14800;48.174;9.798;2023-07-30T00:03:45;20.60;82.70
27314;DHT22;14800;48.174;9.798;2023-07-30T00:06:10;20.70;82.70
27314;DHT22;14800;48.174;9.798;2023-07-30T00:08:36;20.70;82.70
27314;DHT22;14800;48.174;9.798;2023-07-30T00:11:02;20.70;82.80
27314;DHT22;14800;48.174;9.798;2023-07-30T00:13:27;20.70;82.90
27314;DHT22;14800;48.174;9.798;2023-07-30T00:15:53;20.70;82.90
27314;DHT22;14800;48.174;9.798;2023-07-30T00:18:18;20.70;83.80
27314;DHT22;14800;48.174;9.798;2023-07-30T00:20:44;20.70;83.10
27314;DHT22;14800;48.174;9.798;2023-07-30T00:23:10;20.60;83.00
27314;DHT22;14800;48.174;9.798;2023-07-30T00:25:35;20.60;83.10
27314;DHT22;14800;48.174;9.798;2023-07-30T00:28:01;20.60;83.20
27314;DHT22;14800;48.174;9.798;2023-07-30T00:30:26;20.60;84.10
27314;DHT22;14800;48.174;9.798;2023-07-30T00:32:52;20.60;83.30
27314;DHT22;14800;48.174;9.798;2023-07-30T00:35:18;20.60;83.30
27314;DHT22;14800;48.174;9.798;2023-07-30T00:37:43;20.60;83.30
27314;DHT22;14800;48.174;9.798;2023-07-30T00:40:09;20.60;83.30
27314;DHT22;14800;48.174;9.798;2023-07-30T00:42:35;20.60;83.20
27314;DHT22;14800;48.174;9.798;2023-07-30T00:45:01;20.60;83.20
27314;DHT22;14800;48.174;9.798;2023-07-30T00:47:26;20.60;83.30
27314;DHT22;14800;48.174;9.798;2023-07-30T00:49:53;20.60;83.30
27314;DHT22;14800;48.174;9.798;2023-07-30T00:52:20;20.60;83.20
27314;DHT22;14800;48.174;9.798;2023-07-30T00:54:49;20.50;83.20
27314;DHT22;14800;48.174;9.798;2023-07-30T00:57:18;20.50;83.30
27314;DHT22;14800;48.174;9.798;2023-07-30T00:59:44;20.50;84.10
27314;DHT22;14800;48.174;9.798;2023-07-30T01:02:10;20.40;83.30
27314;DHT22;14800;48.174;9.798;2023-07-30T01:04:37;20.40;83.30
27314;DHT22;14800;48.174;9.798;2023-07-30T01:07:05;20.40;83.40
27314;DHT22;14800;48.174;9.798;2023-07-30T01:09:31;20.40;83.40
27314;DHT22;14800;48.174;9.798;2023-07-30T01:11:58;20.40;83.80
27314;DHT22;14800;48.174;9.798;2023-07-30T01:14:24;20.30;83.70
27314;DHT22;14800;48.174;9.798;2023-07-30T01:16:52;20.30;83.80
27314;DHT22;14800;48.174;9.798;2023-07-30T01:19:18;20.30;83.80
27314;DHT22;14800;48.174;9.798;2023-07-30T01:21:43;20.30;83.80
27314;DHT22;14800;48.174;9.798;2023-07-30T01:24:09;20.30;83.80
27314;DHT22;14800;48.174;9.798;2023-07-30T01:26:43;20.30;83.90
27314;DHT22;14800;48.174;9.798;2023-07-30T01:29:14;20.30;84.10
27314;DHT22;14800;48.174;9.798;2023-07-30T01:31:40;20.30;84.00
27314;DHT22;14800;48.174;9.798;2023-07-30T01:34:07;20.20;83.90
27314;DHT22;14800;48.174;9.798;2023-07-30T01:36:35;20.20;84.10
27314;DHT22;14800;48.174;9.798;2023-07-30T01:39:02;20.20;84.10
27314;DHT22;14800;48.174;9.798;2023-07-30T01:41:27;20.20;84.10
27314;DHT22;14800;48.174;9.798;2023-07-30T01:43:53;20.20;84.30
27314;DHT22;14800;48.174;9.798;2023-07-30T01:46:19;20.10;84.40
27314;DHT22;14800;48.174;9.798;2023-07-30T01:48:45;20.20;84.50
27314;DHT22;14800;48.174;9.798;2023-07-30T01:51:10;20.10;84.50
27314;DHT22;14800;48.174;9.798;2023-07-30T01:53:36;20.10;84.50
27314;DHT22;14800;48.174;9.798;2023-07-30T01:56:01;20.10;84.60
27314;DHT22;14800;48.174;9.798;2023-07-30T01:58:27;20.10;84.60
27314;DHT22;14800;48.174;9.798;2023-07-30T02:00:52;20.10;84.60
27314;DHT22;14800;48.174;9.798;2023-07-30T02:03:18;20.10;84.60
27314;DHT22;14800;48.174;9.798;2023-07-30T02:05:44;20.10;84.70
27314;DHT22;14800;48.174;9.798;2023-07-30T02:08:09;20.10;84.80
27314;DHT22;14800;48.174;9.798;2023-07-30T02:10:35;20.10;84.80
27314;DHT22;14800;48.174;9.798;2023-07-30T02:13:01;20.10;84.80
27314;DHT22;14800;48.174;9.798;2023-07-30T02:15:26;20.00;84.80
27314;DHT22;14800;48.174;9.798;2023-07-30T02:17:52;20.10;84.80
27314;DHT22;14800;48.174;9.798;2023-07-30T02:20:17;20.20;84.90
27314;DHT22;14800;48.174;9.798;2023-07-30T02:22:43;20.10;84.80
27314;DHT22;14800;48.174;9.798;2023-07-30T02:25:08;20.20;84.70
27314;DHT22;14800;48.174;9.798;2023-07-30T02:27:34;20.20;84.70
27314;DHT22;14800;48.174;9.798;2023-07-30T02:30:00;20.20;84.60
27314;DHT22;14800;48.174;9.798;2023-07-30T02:32:25;20.20;84.50
27314;DHT22;14800;48.174;9.798;2023-07-30T02:34:51;20.20;84.40
27314;DHT22;14800;48.174;9.798;2023-07-30T02:37:16;20.20;84.40
27314;DHT22;14800;48.174;9.798;2023-07-30T02:39:42;20.20;84.30
27314;DHT22;14800;48.174;9.798;2023-07-30T02:42:07;20.20;84.30
27314;DHT22;14800;48.174;9.798;2023-07-30T02:44:33;20.20;84.20
27314;DHT22;14800;48.174;9.798;2023-07-30T02:46:58;20.20;84.10
27314;DHT22;14800;48.174;9.798;2023-07-30T02:49:24;20.20;84.00
27314;DHT22;14800;48.174;9.798;2023-07-30T02:51:50;20.20;83.90
27314;DHT22;14800;48.174;9.798;2023-07-30T02:54:15;20.20;84.80
27314;DHT22;14800;48.174;9.798;2023-07-30T02:56:46;20.20;84.70
27314;DHT22;14800;48.174;9.798;2023-07-30T02:59:11;20.20;83.90
27314;DHT22;14800;48.174;9.798;2023-07-30T03:01:37;20.10;83.80
27314;DHT22;14800;48.174;9.798;2023-07-30T03:04:04;20.10;83.90
27314;DHT22;14800;48.174;9.798;2023-07-30T03:06:30;20.10;84.00
27314;DHT22;14800;48.174;9.798;2023-07-30T03:08:55;20.10;84.00
27314;DHT22;14800;48.174;9.798;2023-07-30T03:11:22;20.00;84.00
27314;DHT22;14800;48.174;9.798;2023-07-30T03:13:48;20.00;84.00
27314;DHT22;14800;48.174;9.798;2023-07-30T03:16:13;20.00;84.10
27314;DHT22;14800;48.174;9.798;2023-07-30T03:18:39;19.90;84.10
27314;DHT22;14800;48.174;9.798;2023-07-30T03:21:05;20.00;84.30
27314;DHT22;14800;48.174;9.798;2023-07-30T03:23:30;19.90;84.20
27314;DHT22;14800;48.174;9.798;2023-07-30T03:25:57;19.90;84.20
27314;DHT22;14800;48.174;9.798;2023-07-30T03:28:23;19.90;84.30
27314;DHT22;14800;48.174;9.798;2023-07-30T03:30:49;19.90;84.40
27314;DHT22;14800;48.174;9.798;2023-07-30T03:33:14;19.80;84.50
27314;DHT22;14800;48.174;9.798;2023-07-30T03:35:40;19.90;84.50
27314;DHT22;14800;48.174;9.798;2023-07-30T03:38:05;19.80;85.30
27314;DHT22;14800;48.174;9.798;2023-07-30T03:40:31;19.80;84.50
27314;DHT22;14800;48.174;9.798;2023-07-30T03:42:57;19.80;84.50
27314;DHT22;14800;48.174;9.798;2023-07-30T03:45:22;19.80;84.50
27314;DHT22;14800;48.174;9.798;2023-07-30T03:47:48;19.70;84.50
27314;DHT22;14800;48.174;9.798;2023-07-30T03:50:13;19.70;84.60
27314;DHT22;14800;48.174;9.798;2023-07-30T03:52:39;19.70;84.60
27314;DHT22;14800;48.174;9.798;2023-07-30T03:55:05;19.60;84.60
27314;DHT22;14800;48.174;9.798;2023-07-30T03:57:30;19.60;84.70
27314;DHT22;14800;48.174;9.798;2023-07-30T03:59:56;19.60;84.80
27314;DHT22;14800;48.174;9.798;2023-07-30T04:02:22;19.60;84.80
27314;DHT22;14800;48.174;9.798;2023-07-30T04:04:47;19.50;85.00
27314;DHT22;14800;48.174;9.798;2023-07-30T04:07:15;19.50;85.10
27314;DHT22;14800;48.174;9.798;2023-07-30T04:09:40;19.50;85.30
27314;DHT22;14800;48.174;9.798;2023-07-30T04:12:06;19.50;85.30
27314;DHT22;14800;48.174;9.798;2023-07-30T04:14:32;19.40;85.30
27314;DHT22;14800;48.174;9.798;2023-07-30T04:16:57;19.50;85.30
27314;DHT22;14800;48.174;9.798;2023-07-30T04:19:23;19.40;85.30
27314;DHT22;14800;48.174;9.798;2023-07-30T04:21:49;19.50;86.40
27314;DHT22;14800;48.174;9.798;2023-07-30T04:24:14;19.50;85.50
27314;DHT22;14800;48.174;9.798;2023-07-30T04:26:40;19.40;85.50
27314;DHT22;14800;48.174;9.798;2023-07-30T04:29:05;19.50;85.50
27314;DHT22;14800;48.174;9.798;2023-07-30T04:31:31;19.50;86.40
27314;DHT22;14800;48.174;9.798;2023-07-30T04:33:58;19.50;85.60
27314;DHT22;14800;48.174;9.798;2023-07-30T04:36:23;19.50;85.70
27314;DHT22;14800;48.174;9.798;2023-07-30T04:38:49;19.40;85.70
27314;DHT22;14800;48.174;9.798;2023-07-30T04:41:14;19.50;85.90
27314;DHT22;14800;48.174;9.798;2023-07-30T04:43:40;19.40;85.90
27314;DHT22;14800;48.174;9.798;2023-07-30T04:46:06;19.40;86.10
27314;DHT22;14800;48.174;9.798;2023-07-30T04:48:31;19.40;86.20
27314;DHT22;14800;48.174;9.798;2023-07-30T04:50:57;19.40;86.40
27314;DHT22;14800;48.174;9.798;2023-07-30T04:53:22;19.30;86.40
27314;DHT22;14800;48.174;9.798;2023-07-30T04:55:48;19.40;86.70
27314;DHT22;14800;48.174;9.798;2023-07-30T04:58:14;19.30;86.80
27314;DHT22;14800;48.174;9.798;2023-07-30T05:00:39;19.40;86.90
27314;DHT22;14800;48.174;9.798;2023-07-30T05:03:05;19.40;87.00
27314;DHT22;14800;48.174;9.798;2023-07-30T05:05:30;19.40;87.30
27314;DHT22;14800;48.174;9.798;2023-07-30T05:07:56;19.40;87.30
27314;DHT22;14800;48.174;9.798;2023-07-30T05:10:22;19.40;87.40
27314;DHT22;14800;48.174;9.798;2023-07-30T05:12:47;19.40;87.40
27314;DHT22;14800;48.174;9.798;2023-07-30T05:15:13;19.40;87.50
27314;DHT22;14800;48.174;9.798;2023-07-30T05:17:38;19.40;87.60
27314;DHT22;14800;48.174;9.798;2023-07-30T05:20:04;19.50;87.60
27314;DHT22;14800;48.174;9.798;2023-07-30T05:22:30;19.50;87.70
27314;DHT22;14800;48.174;9.798;2023-07-30T05:24:56;19.50;87.80
27314;DHT22;14800;48.174;9.798;2023-07-30T05:27:22;19.60;87.80
27314;DHT22;14800;48.174;9.798;2023-07-30T05:29:47;19.60;87.80
27314;DHT22;14800;48.174;9.798;2023-07-30T05:32:13;19.60;87.70
27314;DHT22;14800;48.174;9.798;2023-07-30T05:34:39;19.70;87.60
27314;DHT22;14800;48.174;9.798;2023-07-30T05:37:04;19.70;87.70
27314;DHT22;14800;48.174;9.798;2023-07-30T05:39:30;19.70;87.80
27314;DHT22;14800;48.174;9.798;2023-07-30T05:41:56;19.80;87.80
27314;DHT22;14800;48.174;9.798;2023-07-30T05:44:21;19.90;87.80
27314;DHT22;14800;48.174;9.798;2023-07-30T05:46:47;19.90;87.70
27314;DHT22;14800;48.174;9.798;2023-07-30T05:49:13;19.90;87.60
27314;DHT22;14800;48.174;9.798;2023-07-30T05:51:40;20.00;87.60
27314;DHT22;14800;48.174;9.798;2023-07-30T05:54:05;20.00;87.60
27314;DHT22;14800;48.174;9.798;2023-07-30T05:56:31;20.10;87.70
27314;DHT22;14800;48.174;9.798;2023-07-30T05:58:56;20.20;87.40
27314;DHT22;14800;48.174;9.798;2023-07-30T06:01:22;20.20;87.30
27314;DHT22;14800;48.174;9.798;2023-07-30T06:03:48;20.30;87.10
27314;DHT22;14800;48.174;9.798;2023-07-30T06:06:14;20.30;86.80
27314;DHT22;14800;48.174;9.798;2023-07-30T06:08:39;20.40;86.60
27314;DHT22;14800;48.174;9.798;2023-07-30T06:11:05;20.40;86.60
27314;DHT22;14800;48.174;9.798;2023-07-30T06:13:31;20.50;86.60
27314;DHT22;14800;48.174;9.798;2023-07-30T06:15:56;20.60;86.50
27314;DHT22;14800;48.174;9.798;2023-07-30T06:18:22;20.60;86.40
27314;DHT22;14800;48.174;9.798;2023-07-30T06:20:48;20.70;86.20
27314;DHT22;14800;48.174;9.798;2023-07-30T06:23:13;20.80;86.10
27314;DHT22;14800;48.174;9.798;2023-07-30T06:25:39;20.90;85.90
27314;DHT22;14800;48.174;9.798;2023-07-30T06:28:05;20.90;85.70
27314;DHT22;14800;48.174;9.798;2023-07-30T06:30:32;21.00;85.30
27314;DHT22;14800;48.174;9.798;2023-07-30T06:32:58;21.10;85.10
27314;DHT22;14800;48.174;9.798;2023-07-30T06:35:23;21.20;84.90
27314;DHT22;14800;48.174;9.798;2023-07-30T06:37:50;21.30;84.60
27314;DHT22;14800;48.174;9.798;2023-07-30T06:40:16;21.30;84.20
27314;DHT22;14800;48.174;9.798;2023-07-30T06:42:41;21.40;84.10
27314;DHT22;14800;48.174;9.798;2023-07-30T06:45:08;21.40;83.80
27314;DHT22;14800;48.174;9.798;2023-07-30T06:47:33;21.50;83.40
27314;DHT22;14800;48.174;9.798;2023-07-30T06:49:59;21.50;83.30
27314;DHT22;14800;48.174;9.798;2023-07-30T06:52:24;21.60;83.10
27314;DHT22;14800;48.174;9.798;2023-07-30T06:54:50;21.60;82.80
27314;DHT22;14800;48.174;9.798;2023-07-30T06:57:16;21.70;82.60
27314;DHT22;14800;48.174;9.798;2023-07-30T06:59:41;21.70;82.40
27314;DHT22;14800;48.174;9.798;2023-07-30T07:02:07;21.80;82.30
27314;DHT22;14800;48.174;9.798;2023-07-30T07:04:33;21.80;82.00
27314;DHT22;14800;48.174;9.798;2023-07-30T07:06:58;21.80;82.20
27314;DHT22;14800;48.174;9.798;2023-07-30T07:09:24;21.90;82.10
27314;DHT22;14800;48.174;9.798;2023-07-30T07:11:49;21.90;81.80
27314;DHT22;14800;48.174;9.798;2023-07-30T07:14:15;22.00;80.90
27314;DHT22;14800;48.174;9.798;2023-07-30T07:16:40;22.00;80.60
27314;DHT22;14800;48.174;9.798;2023-07-30T07:19:06;22.10;80.10
27314;DHT22;14800;48.174;9.798;2023-07-30T07:21:32;22.10;79.80
27314;DHT22;14800;48.174;9.798;2023-07-30T07:23:57;22.10;79.70
27314;DHT22;14800;48.174;9.798;2023-07-30T07:26:23;22.20;79.80
27314;DHT22;14800;48.174;9.798;2023-07-30T07:28:48;22.20;79.80
27314;DHT22;14800;48.174;9.798;2023-07-30T07:31:14;22.30;79.60
27314;DHT22;14800;48.174;9.798;2023-07-30T07:33:40;22.30;79.50
27314;DHT22;14800;48.174;9.798;2023-07-30T07:36:06;22.40;79.20
27314;DHT22;14800;48.174;9.798;2023-07-30T07:38:33;22.40;78.60
27314;DHT22;14800;48.174;9.798;2023-07-30T07:41:02;22.40;78.60
27314;DHT22;14800;48.174;9.798;2023-07-30T07:43:28;22.50;79.60
27314;DHT22;14800;48.174;9.798;2023-07-30T07:45:53;22.50;78.50
27314;DHT22;14800;48.174;9.798;2023-07-30T07:48:19;22.60;78.30
27314;DHT22;14800;48.174;9.798;2023-07-30T07:50:45;22.70;77.30
27314;DHT22;14800;48.174;9.798;2023-07-30T07:53:11;22.70;77.00
27314;DHT22;14800;48.174;9.798;2023-07-30T07:55:37;22.80;76.50
27314;DHT22;14800;48.174;9.798;2023-07-30T07:58:02;22.80;76.60
27314;DHT22;14800;48.174;9.798;2023-07-30T08:00:28;22.90;76.50
27314;DHT22;14800;48.174;9.798;2023-07-30T08:02:53;22.90;76.30
27314;DHT22;14800;48.174;9.798;2023-07-30T08:05:19;23.00;76.70
27314;DHT22;14800;48.174;9.798;2023-07-30T08:07:49;23.00;76.10
27314;DHT22;14800;48.174;9.798;2023-07-30T08:10:16;23.10;75.20
27314;DHT22;14800;48.174;9.798;2023-07-30T08:12:42;23.20;74.90
27314;DHT22;14800;48.174;9.798;2023-07-30T08:15:08;23.20;74.70
27314;DHT22;14800;48.174;9.798;2023-07-30T08:17:33;23.30;74.70
27314;DHT22;14800;48.174;9.798;2023-07-30T08:19:59;23.30;74.60
27314;DHT22;14800;48.174;9.798;2023-07-30T08:22:24;23.40;74.70
27314;DHT22;14800;48.174;9.798;2023-07-30T08:24:50;23.40;74.10
27314;DHT22;14800;48.174;9.798;2023-07-30T08:27:15;23.50;74.20
27314;DHT22;14800;48.174;9.798;2023-07-30T08:29:41;23.60;73.60
27314;DHT22;14800;48.174;9.798;2023-07-30T08:32:07;23.60;73.00
27314;DHT22;14800;48.174;9.798;2023-07-30T08:34:32;23.60;72.50
27314;DHT22;14800;48.174;9.798;2023-07-30T08:36:58;23.70;71.80
27314;DHT22;14800;48.174;9.798;2023-07-30T08:39:24;23.80;71.30
27314;DHT22;14800;48.174;9.798;2023-07-30T08:41:49;23.80;71.10
27314;DHT22;14800;48.174;9.798;2023-07-30T08:44:15;23.80;70.20
27314;DHT22;14800;48.174;9.798;2023-07-30T08:46:41;23.80;70.20
27314;DHT22;14800;48.174;9.798;2023-07-30T08:49:06;23.90;70.60
27314;DHT22;14800;48.174;9.798;2023-07-30T08:51:33;23.90;70.70
27314;DHT22;14800;48.174;9.798;2023-07-30T08:54:01;24.00;70.10
27314;DHT22;14800;48.174;9.798;2023-07-30T08:56:28;24.00;69.90
27314;DHT22;14800;48.174;9.798;2023-07-30T08:58:54;24.10;69.50
27314;DHT22;14800;48.174;9.798;2023-07-30T09:01:26;24.10;69.60
27314;DHT22;14800;48.174;9.798;2023-07-30T09:03:54;24.20;69.20
27314;DHT22;14800;48.174;9.798;2023-07-30T09:06:22;24.20;68.90
27314;DHT22;14800;48.174;9.798;2023-07-30T09:08:48;24.30;68.20
27314;DHT22;14800;48.174;9.798;2023-07-30T09:11:13;24.30;67.90
27314;DHT22;14800;48.174;9.798;2023-07-30T09:13:40;24.40;67.80
27314;DHT22;14800;48.174;9.798;2023-07-30T09:16:14;24.40;66.90
27314;DHT22;14800;48.174;9.798;2023-07-30T09:18:45;24.40;65.00
27314;DHT22;14800;48.174;9.798;2023-07-30T09:21:12;24.40;66.00
27314;DHT22;14800;48.174;9.798;2023-07-30T09:23:42;24.40;66.40
27314;DHT22;14800;48.174;9.798;2023-07-30T09:26:08;24.50;65.70
27314;DHT22;14800;48.174;9.798;2023-07-30T09:28:34;24.50;66.20
27314;DHT22;14800;48.174;9.798;2023-07-30T09:31:01;24.60;66.00
27314;DHT22;14800;48.174;9.798;2023-07-30T09:33:27;24.60;64.50
27314;DHT22;14800;48.174;9.798;2023-07-30T09:35:52;24.70;64.00
27314;DHT22;14800;48.174;9.798;2023-07-30T09:38:19;24.70;64.50
27314;DHT22;14800;48.174;9.798;2023-07-30T09:40:45;24.80;62.60
27314;DHT22;14800;48.174;9.798;2023-07-30T09:43:14;24.80;62.30
27314;DHT22;14800;48.174;9.798;2023-07-30T09:45:40;24.80;62.90
27314;DHT22;14800;48.174;9.798;2023-07-30T09:48:06;24.80;62.70
27314;DHT22;14800;48.174;9.798;2023-07-30T09:50:33;24.80;63.30
27314;DHT22;14800;48.174;9.798;2023-07-30T09:53:01;24.90;63.10
27314;DHT22;14800;48.174;9.798;2023-07-30T09:55:27;24.90;62.60
27314;DHT22;14800;48.174;9.798;2023-07-30T09:57:53;25.00;62.90
27314;DHT22;14800;48.174;9.798;2023-07-30T10:00:18;25.00;62.90
27314;DHT22;14800;48.174;9.798;2023-07-30T10:02:49;25.10;62.60
27314;DHT22;14800;48.174;9.798;2023-07-30T10:05:17;25.20;61.80
27314;DHT22;14800;48.174;9.798;2023-07-30T10:07:59;25.20;62.00
27314;DHT22;14800;48.174;9.798;2023-07-30T10:10:27;25.20;62.60
27314;DHT22;14800;48.174;9.798;2023-07-30T10:12:55;25.20;63.20
27314;DHT22;14800;48.174;9.798;2023-07-30T10:15:22;25.20;64.20
27314;DHT22;14800;48.174;9.798;2023-07-30T10:17:50;25.00;63.40
27314;DHT22;14800;48.174;9.798;2023-07-30T10:20:20;24.80;62.60
27314;DHT22;14800;48.174;9.798;2023-07-30T10:22:46;24.50;64.00
27314;DHT22;14800;48.174;9.798;2023-07-30T10:25:13;24.30;65.40
27314;DHT22;14800;48.174;9.798;2023-07-30T10:27:41;24.20;67.20
27314;DHT22;14800;48.174;9.798;2023-07-30T10:30:15;24.10;68.30
27314;DHT22;14800;48.174;9.798;2023-07-30T10:35:44;24.10;67.00
27314;DHT22;14800;48.174;9.798;2023-07-30T10:38:18;24.10;65.90
27314;DHT22;14800;48.174;9.798;2023-07-30T10:41:14;24.00;66.30
27314;DHT22;14800;48.174;9.798;2023-07-30T10:43:43;24.10;65.90
27314;DHT22;14800;48.174;9.798;2023-07-30T10:46:12;24.00;64.30
27314;DHT22;14800;48.174;9.798;2023-07-30T10:48:40;24.00;62.10
27314;DHT22;14800;48.174;9.798;2023-07-30T10:51:08;24.10;61.50
27314;DHT22;14800;48.174;9.798;2023-07-30T10:53:34;24.10;60.80
27314;DHT22;14800;48.174;9.798;2023-07-30T10:56:06;24.10;60.90
27314;DHT22;14800;48.174;9.798;2023-07-30T10:58:34;24.20;59.90
27314;DHT22;14800;48.174;9.798;2023-07-30T11:01:04;24.20;59.50
27314;DHT22;14800;48.174;9.798;2023-07-30T11:03:30;24.30;58.90
27314;DHT22;14800;48.174;9.798;2023-07-30T11:06:01;24.40;58.80
27314;DHT22;14800;48.174;9.798;2023-07-30T11:08:40;24.50;57.30
27314;DHT22;14800;48.174;9.798;2023-07-30T11:11:08;24.60;54.80
27314;DHT22;14800;48.174;9.798;2023-07-30T11:13:40;24.70;54.30
27314;DHT22;14800;48.174;9.798;2023-07-30T11:16:07;24.70;53.10
27314;DHT22;14800;48.174;9.798;2023-07-30T11:18:33;24.70;56.90
27314;DHT22;14800;48.174;9.798;2023-07-30T11:21:13;24.50;57.30
27314;DHT22;14800;48.174;9.798;2023-07-30T11:23:40;24.30;58.00
27314;DHT22;14800;48.174;9.798;2023-07-30T11:26:14;24.10;59.10
27314;DHT22;14800;48.174;9.798;2023-07-30T11:28:40;23.90;59.80
27314;DHT22;14800;48.174;9.798;2023-07-30T11:33:35;23.60;60.50
27314;DHT22;14800;48.174;9.798;2023-07-30T11:36:02;23.40;60.50
27314;DHT22;14800;48.174;9.798;2023-07-30T11:38:28;23.20;61.60
27314;DHT22;14800;48.174;9.798;2023-07-30T11:40:55;23.10;62.50
27314;DHT22;14800;48.174;9.798;2023-07-30T11:43:22;23.00;62.80
27314;DHT22;14800;48.174;9.798;2023-07-30T11:45:48;23.00;62.80
27314;DHT22;14800;48.174;9.798;2023-07-30T11:48:14;22.90;63.20
27314;DHT22;14800;48.174;9.798;2023-07-30T11:50:47;22.90;64.50
27314;DHT22;14800;48.174;9.798;2023-07-30T11:53:14;22.90;64.50
27314;DHT22;14800;48.174;9.798;2023-07-30T11:55:40;22.90;63.70
27314;DHT22;14800;48.174;9.798;2023-07-30T11:58:07;23.00;64.30
27314;DHT22;14800;48.174;9.798;2023-07-30T12:00:33;23.00;63.10
27314;DHT22;14800;48.174;9.798;2023-07-30T12:03:06;23.10;63.20
27314;DHT22;14800;48.174;9.798;2023-07-30T12:05:37;23.10;62.70
27314;DHT22;14800;48.174;9.798;2023-07-30T12:08:04;23.20;62.60
27314;DHT22;14800;48.174;9.798;2023-07-30T12:10:42;23.20;62.90
27314;DHT22;14800;48.174;9.798;2023-07-30T12:13:18;23.20;60.40
27314;DHT22;14800;48.174;9.798;2023-07-30T12:15:54;23.30;60.80
27314;DHT22;14800;48.174;9.798;2023-07-30T12:18:20;23.40;61.10
27314;DHT22;14800;48.174;9.798;2023-07-30T12:20:47;23.40;61.40
27314;DHT22;14800;48.174;9.798;2023-07-30T12:23:13;23.50;60.60
27314;DHT22;14800;48.174;9.798;2023-07-30T12:25:39;23.60;59.90
27314;DHT22;14800;48.174;9.798;2023-07-30T12:28:05;23.60;59.90
27314;DHT22;14800;48.174;9.798;2023-07-30T12:30:31;23.60;59.80
27314;DHT22;14800;48.174;9.798;2023-07-30T12:32:56;23.60;60.00
27314;DHT22;14800;48.174;9.798;2023-07-30T12:35:23;23.70;59.80
27314;DHT22;14800;48.174;9.798;2023-07-30T12:37:48;23.80;59.50
27314;DHT22;14800;48.174;9.798;2023-07-30T12:40:14;23.80;58.60
27314;DHT22;14800;48.174;9.798;2023-07-30T12:42:40;23.80;57.80
27314;DHT22;14800;48.174;9.798;2023-07-30T12:45:06;23.90;58.20
27314;DHT22;14800;48.174;9.798;2023-07-30T12:47:32;23.90;58.50
27314;DHT22;14800;48.174;9.798;2023-07-30T12:50:00;23.90;58.90
27314;DHT22;14800;48.174;9.798;2023-07-30T12:52:26;24.00;58.70
27314;DHT22;14800;48.174;9.798;2023-07-30T12:54:52;24.00;58.50
27314;DHT22;14800;48.174;9.798;2023-07-30T12:57:18;24.10;58.20
27314;DHT22;14800;48.174;9.798;2023-07-30T12:59:43;24.20;58.20
27314;DHT22;14800;48.174;9.798;2023-07-30T13:02:09;24.20;57.70
27314;DHT22;14800;48.174;9.798;2023-07-30T13:04:34;24.30;58.30
27314;DHT22;14800;48.174;9.798;2023-07-30T13:07:00;24.40;58.40
27314;DHT22;14800;48.174;9.798;2023-07-30T13:09:25;24.50;58.60
27314;DHT22;14800;48.174;9.798;2023-07-30T13:11:51;24.50;58.20
27314;DHT22;14800;48.174;9.798;2023-07-30T13:14:16;24.60;58.30
27314;DHT22;14800;48.174;9.798;2023-07-30T13:16:42;24.70;57.70
27314;DHT22;14800;48.174;9.798;2023-07-30T13:19:08;24.70;57.10
27314;DHT22;14800;48.174;9.798;2023-07-30T13:21:34;24.80;57.00
27314;DHT22;14800;48.174;9.798;2023-07-30T13:23:59;24.80;56.50
27314;DHT22;14800;48.174;9.798;2023-07-30T13:26:25;24.90;57.20
27314;DHT22;14800;48.174;9.798;2023-07-30T13:28:50;24.90;56.60
27314;DHT22;14800;48.174;9.798;2023-07-30T13:31:16;25.00;56.30
27314;DHT22;14800;48.174;9.798;2023-07-30T13:33:41;25.00;56.70
27314;DHT22;14800;48.174;9.798;2023-07-30T13:36:07;25.10;56.00
27314;DHT22;14800;48.174;9.798;2023-07-30T13:38:34;25.10;55.90
27314;DHT22;14800;48.174;9.798;2023-07-30T13:40:59;25.10;55.00
27314;DHT22;14800;48.174;9.798;2023-07-30T13:43:25;25.10;55.20
27314;DHT22;14800;48.174;9.798;2023-07-30T13:45:50;25.20;55.00
27314;DHT22;14800;48.174;9.798;2023-07-30T13:48:17;25.20;55.20
27314;DHT22;14800;48.174;9.798;2023-07-30T13:50:43;25.20;55.40
27314;DHT22;14800;48.174;9.798;2023-07-30T13:53:09;25.20;54.20
27314;DHT22;14800;48.174;9.798;2023-07-30T13:55:34;25.30;53.90
27314;DHT22;14800;48.174;9.798;2023-07-30T13:58:00;25.30;53.10
27314;DHT22;14800;48.174;9.798;2023-07-30T14:00:25;25.40;53.70
27314;DHT22;14800;48.174;9.798;2023-07-30T14:02:51;25.40;53.60
27314;DHT22;14800;48.174;9.798;2023-07-30T14:05:17;25.40;53.60
27314;DHT22;14800;48.174;9.798;2023-07-30T14:07:43;25.40;53.00
27314;DHT22;14800;48.174;9.798;2023-07-30T14:10:09;25.50;53.10
27314;DHT22;14800;48.174;9.798;2023-07-30T14:12:35;25.50;52.30
27314;DHT22;14800;48.174;9.798;2023-07-30T14:15:01;25.40;53.00
27314;DHT22;14800;48.174;9.798;2023-07-30T14:17:26;25.40;52.60
27314;DHT22;14800;48.174;9.798;2023-07-30T14:19:52;25.40;52.70
27314;DHT22;14800;48.174;9.798;2023-07-30T14:22:18;25.40;53.20
27314;DHT22;14800;48.174;9.798;2023-07-30T14:24:43;25.40;53.80
27314;DHT22;14800;48.174;9.798;2023-07-30T14:27:10;25.40;52.70
27314;DHT22;14800;48.174;9.798;2023-07-30T14:29:35;25.40;52.40
27314;DHT22;14800;48.174;9.798;2023-07-30T14:32:01;25.40;52.20
27314;DHT22;14800;48.174;9.798;2023-07-30T14:34:27;25.40;52.70
27314;DHT22;14800;48.174;9.798;2023-07-30T14:36:52;25.40;52.70
27314;DHT22;14800;48.174;9.798;2023-07-30T14:39:18;25.40;52.60
27314;DHT22;14800;48.174;9.798;2023-07-30T14:41:43;25.40;52.80
27314;DHT22;14800;48.174;9.798;2023-07-30T14:44:09;25.30;52.50
27314;DHT22;14800;48.174;9.798;2023-07-30T14:46:34;25.40;52.90
27314;DHT22;14800;48.174;9.798;2023-07-30T14:49:00;25.30;52.80
27314;DHT22;14800;48.174;9.798;2023-07-30T14:51:26;25.30;52.60
27314;DHT22;14800;48.174;9.798;2023-07-30T14:53:51;25.30;53.30
27314;DHT22;14800;48.174;9.798;2023-07-30T14:56:17;25.30;53.60
27314;DHT22;14800;48.174;9.798;2023-07-30T14:58:42;25.30;52.90
27314;DHT22;14800;48.174;9.798;2023-07-30T15:01:08;25.30;53.50
27314;DHT22;14800;48.174;9.798;2023-07-30T15:03:34;25.40;52.70
27314;DHT22;14800;48.174;9.798;2023-07-30T15:05:59;25.40;52.50
27314;DHT22;14800;48.174;9.798;2023-07-30T15:08:25;25.40;53.00
27314;DHT22;14800;48.174;9.798;2023-07-30T15:10:51;25.50;54.20
27314;DHT22;14800;48.174;9.798;2023-07-30T15:13:16;25.60;53.50
27314;DHT22;14800;48.174;9.798;2023-07-30T15:15:43;25.60;53.00
27314;DHT22;14800;48.174;9.798;2023-07-30T15:18:09;25.70;52.70
27314;DHT22;14800;48.174;9.798;2023-07-30T15:20:35;25.70;52.30
27314;DHT22;14800;48.174;9.798;2023-07-30T15:23:01;25.60;52.50
27314;DHT22;14800;48.174;9.798;2023-07-30T15:25:26;25.60;52.40
27314;DHT22;14800;48.174;9.798;2023-07-30T15:27:52;25.50;53.00
27314;DHT22;14800;48.174;9.798;2023-07-30T15:30:17;25.30;53.00